createdAt,value
2022-09-16T00:00:46.277Z,16.26
2022-09-16T00:03:13.572Z,16.24
2022-09-16T00:05:42.384Z,16.24
2022-09-16T00:08:09.454Z,16.21
2022-09-16T00:10:36.091Z,16.21
2022-09-16T00:13:03.283Z,16.24
2022-09-16T00:15:29.783Z,16.27
2022-09-16T00:17:56.338Z,16.26
2022-09-16T00:20:22.956Z,16.26
2022-09-16T00:22:49.506Z,16.26
2022-09-16T00:25:16.135Z,16.26
2022-09-16T00:27:42.947Z,16.27
2022-09-16T00:30:09.835Z,16.28
2022-09-16T00:32:36.348Z,16.26
2022-09-16T00:35:02.905Z,16.28
2022-09-16T00:37:32.668Z,16.33
2022-09-16T00:39:59.270Z,16.38
2022-09-16T00:42:25.971Z,16.42
2022-09-16T00:45:02.341Z,16.44
2022-09-16T00:47:47.069Z,16.47
2022-09-16T00:50:38.005Z,16.45
2022-09-16T00:53:17.572Z,16.45
2022-09-16T00:55:45.246Z,16.47
2022-09-16T00:58:23.523Z,16.46
2022-09-16T01:00:50.947Z,16.46
2022-09-16T01:03:18.468Z,16.45
2022-09-16T01:05:45.969Z,16.43
2022-09-16T01:08:12.897Z,16.42
2022-09-16T01:10:42.281Z,16.40
2022-09-16T01:13:12.828Z,16.40
2022-09-16T01:16:05.669Z,16.37
2022-09-16T01:18:54.023Z,16.37
2022-09-16T01:21:31.430Z,16.37
2022-09-16T01:23:58.187Z,16.40
2022-09-16T01:26:58.793Z,16.35
2022-09-16T01:30:03.712Z,16.31
2022-09-16T01:33:01.505Z,16.29
2022-09-16T01:35:58.011Z,16.28
2022-09-16T01:38:29.848Z,16.30
2022-09-16T01:40:56.380Z,16.28
2022-09-16T01:43:28.827Z,16.29
2022-09-16T01:46:31.365Z,16.26
2022-09-16T01:49:07.233Z,16.22
2022-09-16T01:51:46.490Z,16.20
2022-09-16T01:54:24.348Z,16.19
2022-09-16T01:57:07.867Z,16.19
2022-09-16T01:59:43.612Z,16.24
2022-09-16T02:02:39.358Z,16.24
2022-09-16T02:05:11.757Z,16.23
2022-09-16T02:07:42.986Z,16.24
2022-09-16T02:10:16.958Z,16.25
2022-09-16T02:12:45.990Z,16.24
2022-09-16T02:15:22.047Z,16.23
2022-09-16T02:17:56.616Z,16.22
2022-09-16T02:20:27.801Z,16.23
2022-09-16T02:23:01.856Z,16.22
2022-09-16T02:25:30.815Z,16.22
2022-09-16T02:28:00.907Z,16.24
2022-09-16T02:30:27.549Z,16.23
2022-09-16T02:33:00.870Z,16.21
2022-09-16T02:35:29.496Z,16.19
2022-09-16T02:38:02.338Z,16.15
2022-09-16T02:40:42.072Z,16.05
2022-09-16T02:43:09.275Z,16.01
2022-09-16T02:45:56.867Z,15.94
2022-09-16T02:48:46.323Z,15.89
2022-09-16T02:51:16.226Z,15.87
2022-09-16T02:54:06.024Z,15.83
2022-09-16T02:56:36.667Z,15.85
2022-09-16T02:59:05.863Z,15.89
2022-09-16T03:01:36.950Z,15.86
2022-09-16T03:04:04.187Z,15.85
2022-09-16T03:06:36.029Z,15.85
2022-09-16T03:09:06.056Z,15.82
2022-09-16T03:11:54.483Z,15.80
2022-09-16T03:14:39.840Z,15.79
2022-09-16T03:17:28.224Z,15.78
2022-09-16T03:20:33.405Z,15.73
2022-09-16T03:23:21.460Z,15.69
2022-09-16T03:26:07.436Z,15.67
2022-09-16T03:28:45.671Z,15.68
2022-09-16T03:31:15.629Z,15.71
2022-09-16T03:33:47.230Z,15.70
2022-09-16T03:36:19.420Z,15.70
2022-09-16T03:38:46.985Z,15.69
2022-09-16T03:41:15.021Z,15.68
2022-09-16T03:43:51.857Z,15.66
2022-09-16T03:46:18.391Z,15.65
2022-09-16T03:48:44.915Z,15.62
2022-09-16T03:51:12.690Z,15.60
2022-09-16T03:53:39.214Z,15.62
2022-09-16T03:56:06.072Z,15.60
2022-09-16T03:58:32.709Z,15.62
2022-09-16T04:00:59.318Z,15.59
2022-09-16T04:03:28.878Z,15.55
2022-09-16T04:05:58.203Z,15.53
2022-09-16T04:08:24.738Z,15.50
2022-09-16T04:10:59.842Z,15.45
2022-09-16T04:13:28.858Z,15.42
2022-09-16T04:15:55.410Z,15.43
2022-09-16T04:18:22.120Z,15.40
2022-09-16T04:20:48.724Z,15.36
2022-09-16T04:23:15.257Z,15.34
2022-09-16T04:25:42.030Z,15.31
2022-09-16T04:28:08.600Z,15.32
2022-09-16T04:30:36.609Z,15.30
2022-09-16T04:33:03.264Z,15.29
2022-09-16T04:35:29.815Z,15.27
2022-09-16T04:37:56.380Z,15.23
2022-09-16T04:40:22.979Z,15.21
2022-09-16T04:42:50.591Z,15.19
2022-09-16T04:45:17.675Z,15.18
2022-09-16T04:47:44.356Z,15.18
2022-09-16T04:50:11.338Z,15.18
2022-09-16T04:52:37.914Z,15.16
2022-09-16T04:55:04.792Z,15.16
2022-09-16T04:57:32.601Z,15.16
2022-09-16T04:59:59.585Z,15.38
2022-09-16T05:02:26.295Z,15.82
2022-09-16T05:04:52.839Z,16.23
2022-09-16T05:07:19.433Z,16.66
2022-09-16T05:09:46.246Z,16.93
2022-09-16T05:12:12.841Z,16.97
2022-09-16T05:14:39.797Z,16.84
2022-09-16T05:17:07.402Z,16.61
2022-09-16T05:19:33.965Z,16.41
2022-09-16T05:22:00.770Z,16.48
2022-09-16T05:24:27.307Z,16.47
2022-09-16T05:26:53.884Z,16.26
2022-09-16T05:29:20.662Z,15.94
2022-09-16T05:31:50.711Z,15.74
2022-09-16T05:34:19.829Z,15.66
2022-09-16T05:36:48.274Z,15.58
2022-09-16T05:39:25.827Z,15.52
2022-09-16T05:41:55.609Z,15.49
2022-09-16T05:44:22.788Z,15.42
2022-09-16T05:46:49.400Z,15.41
2022-09-16T05:49:20.681Z,15.28
2022-09-16T05:51:48.498Z,15.41
2022-09-16T05:54:15.699Z,15.65
2022-09-16T05:56:42.547Z,15.75
2022-09-16T05:59:12.064Z,15.60
2022-09-16T06:01:38.860Z,15.80
2022-09-16T06:04:07.511Z,15.92
2022-09-16T06:06:39.102Z,15.85
2022-09-16T06:09:20.252Z,15.72
2022-09-16T06:11:49.343Z,15.69
2022-09-16T06:14:27.108Z,15.54
2022-09-16T06:16:53.685Z,15.47
2022-09-16T06:19:24.885Z,15.73
2022-09-16T06:21:52.427Z,15.85
2022-09-16T06:24:20.661Z,15.75
2022-09-16T06:26:49.316Z,15.66
2022-09-16T06:29:17.559Z,15.89
2022-09-16T06:31:44.164Z,15.79
2022-09-16T06:34:14.870Z,15.72
2022-09-16T06:36:44.734Z,15.57
2022-09-16T06:39:13.575Z,15.56
2022-09-16T06:41:40.573Z,15.55
2022-09-16T06:44:07.173Z,15.69
2022-09-16T06:46:33.770Z,15.79
2022-09-16T06:49:05.093Z,15.98
2022-09-16T06:51:32.778Z,16.17
2022-09-16T06:54:01.378Z,16.04
2022-09-16T06:56:27.922Z,15.94
2022-09-16T06:58:55.903Z,16.05
2022-09-16T07:01:29.236Z,16.04
2022-09-16T07:03:58.276Z,15.87
2022-09-16T07:06:45.239Z,15.74
2022-09-16T07:09:14.595Z,15.71
2022-09-16T07:11:41.162Z,15.97
2022-09-16T07:14:09.393Z,16.31
2022-09-16T07:16:36.007Z,16.46
2022-09-16T07:19:04.525Z,16.40
2022-09-16T07:21:31.345Z,16.39
2022-09-16T07:23:59.890Z,16.39
2022-09-16T07:26:32.513Z,16.31
2022-09-16T07:29:00.866Z,16.16
2022-09-16T07:31:29.659Z,16.08
2022-09-16T07:34:03.487Z,16.03
2022-09-16T07:36:35.974Z,15.98
2022-09-16T07:39:03.418Z,16.02
2022-09-16T07:41:32.666Z,16.22
2022-09-16T07:44:00.657Z,16.14
2022-09-16T07:46:29.549Z,16.09
2022-09-16T07:48:56.619Z,16.08
2022-09-16T07:51:24.961Z,16.09
2022-09-16T07:54:05.254Z,16.06
2022-09-16T07:56:34.595Z,16.01
2022-09-16T07:59:03.258Z,16.11
2022-09-16T08:01:31.411Z,16.33
2022-09-16T08:03:59.705Z,16.28
2022-09-16T08:06:29.025Z,16.40
2022-09-16T08:09:02.401Z,16.53
2022-09-16T08:11:36.546Z,16.30
2022-09-16T08:14:03.130Z,16.22
2022-09-16T08:16:29.815Z,16.50
2022-09-16T08:18:58.727Z,16.76
2022-09-16T08:21:28.177Z,16.90
2022-09-16T08:23:55.798Z,16.84
2022-09-16T08:26:22.611Z,17.18
2022-09-16T08:29:07.887Z,17.30
2022-09-16T08:31:36.484Z,17.07
2022-09-16T08:34:03.455Z,16.94
2022-09-16T08:36:30.033Z,16.86
2022-09-16T08:38:56.889Z,16.90
2022-09-16T08:41:46.917Z,16.88
2022-09-16T08:44:41.098Z,16.89
2022-09-16T08:47:35.168Z,16.92
2022-09-16T08:50:06.271Z,17.00
2022-09-16T08:52:37.132Z,17.14
2022-09-16T08:55:16.767Z,17.07
2022-09-16T08:57:54.020Z,17.19
2022-09-16T09:00:20.820Z,17.29
2022-09-16T09:03:16.479Z,17.29
2022-09-16T09:05:50.278Z,17.30
2022-09-16T09:08:22.746Z,17.27
2022-09-16T09:10:57.359Z,17.15
2022-09-16T09:13:38.421Z,17.10
2022-09-16T09:16:33.210Z,17.08
2022-09-16T09:19:21.665Z,17.08
2022-09-16T09:22:00.709Z,17.13
2022-09-16T09:24:59.922Z,17.23
2022-09-16T09:27:32.729Z,17.45
2022-09-16T09:30:03.786Z,17.56
2022-09-16T09:32:46.341Z,17.71
2022-09-16T09:35:39.456Z,17.77
2022-09-16T09:38:27.744Z,17.75
2022-09-16T09:40:59.175Z,17.73
2022-09-16T09:43:35.830Z,17.86
2022-09-16T09:46:12.426Z,17.94
2022-09-16T09:48:44.451Z,17.99
2022-09-16T09:51:23.013Z,18.17
2022-09-16T09:53:55.001Z,18.45
2022-09-16T09:56:26.527Z,18.38
2022-09-16T09:59:30.432Z,18.21
2022-09-16T10:01:58.583Z,17.92
2022-09-16T10:04:25.402Z,17.69
2022-09-16T10:06:56.215Z,17.66
2022-09-16T10:09:23.371Z,17.48
2022-09-16T10:11:56.082Z,17.39
2022-09-16T10:14:26.633Z,17.39
2022-09-16T10:16:55.037Z,17.46
2022-09-16T10:19:27.192Z,17.75
2022-09-16T10:21:57.135Z,18.10
2022-09-16T10:24:35.660Z,18.32
2022-09-16T10:27:17.737Z,18.26
2022-09-16T10:29:44.304Z,18.31
2022-09-16T10:32:18.081Z,18.29
2022-09-16T10:34:46.608Z,18.20
2022-09-16T10:37:13.654Z,18.06
2022-09-16T10:40:16.138Z,18.04
2022-09-16T10:42:46.700Z,18.00
2022-09-16T10:45:20.315Z,18.00
2022-09-16T10:47:53.723Z,18.01
2022-09-16T10:50:20.680Z,18.04
2022-09-16T10:52:48.747Z,18.05
2022-09-16T10:55:25.459Z,18.07
2022-09-16T10:57:53.486Z,17.98
2022-09-16T11:00:24.034Z,17.86
2022-09-16T11:03:09.158Z,17.97
2022-09-16T11:06:00.140Z,18.13
2022-09-16T11:09:03.809Z,18.40
2022-09-16T11:11:45.297Z,18.35
2022-09-16T11:14:18.050Z,18.11
2022-09-16T11:16:50.284Z,17.96
2022-09-16T11:19:32.423Z,17.80
2022-09-16T11:22:14.272Z,17.88
2022-09-16T11:24:56.065Z,17.95
2022-09-16T11:27:28.680Z,17.87
2022-09-16T11:30:16.232Z,17.87
2022-09-16T11:33:03.207Z,18.02
2022-09-16T11:35:54.408Z,18.18
2022-09-16T11:38:29.700Z,18.08
2022-09-16T11:41:33.890Z,18.08
2022-09-16T11:44:31.386Z,18.03
2022-09-16T11:47:01.018Z,17.98
2022-09-16T11:49:46.890Z,18.13
2022-09-16T11:52:28.142Z,18.23
2022-09-16T11:55:28.404Z,18.36
2022-09-16T11:58:00.281Z,18.45
2022-09-16T12:00:27.234Z,18.45
2022-09-16T12:03:13.044Z,18.46
2022-09-16T12:05:53.604Z,18.33
2022-09-16T12:08:37.283Z,18.37
2022-09-16T12:11:22.605Z,18.35
2022-09-16T12:14:05.623Z,18.40
2022-09-16T12:16:51.772Z,18.51
2022-09-16T12:19:26.952Z,18.50
2022-09-16T12:22:08.257Z,18.34
2022-09-16T12:24:40.923Z,18.26
2022-09-16T12:27:24.403Z,18.26
2022-09-16T12:30:00.922Z,18.57
2022-09-16T12:32:30.374Z,18.78
2022-09-16T12:35:03.773Z,19.04
2022-09-16T12:37:39.053Z,19.01
2022-09-16T12:40:07.066Z,18.92
2022-09-16T12:42:58.415Z,18.75
2022-09-16T12:45:37.494Z,18.56
2022-09-16T12:48:40.304Z,18.23
2022-09-16T12:51:32.259Z,18.01
2022-09-16T12:54:07.811Z,17.97
2022-09-16T12:56:50.927Z,17.96
2022-09-16T12:59:54.463Z,17.85
2022-09-16T13:02:26.646Z,17.84
2022-09-16T13:04:57.561Z,17.85
2022-09-16T13:07:35.205Z,17.70
2022-09-16T13:10:40.460Z,17.45
2022-09-16T13:13:25.050Z,16.99
2022-09-16T13:16:00.390Z,16.29
2022-09-16T13:18:45.562Z,15.42
2022-09-16T13:21:37.632Z,15.12
2022-09-16T13:24:28.569Z,14.79
2022-09-16T13:26:55.571Z,14.69
2022-09-16T13:29:32.112Z,14.74
2022-09-16T13:31:58.698Z,15.04
2022-09-16T13:34:25.384Z,15.12
2022-09-16T13:36:52.169Z,15.08
2022-09-16T13:39:34.150Z,15.05
2022-09-16T13:42:17.705Z,15.06
2022-09-16T13:44:44.298Z,15.04
2022-09-16T13:47:10.890Z,15.05
2022-09-16T13:50:00.749Z,15.05
2022-09-16T13:52:30.332Z,15.04
2022-09-16T13:55:10.910Z,15.06
2022-09-16T13:57:59.796Z,15.14
2022-09-16T14:00:32.309Z,15.24
2022-09-16T14:03:21.125Z,15.32
2022-09-16T14:06:04.468Z,15.41
2022-09-16T14:08:43.113Z,15.48
2022-09-16T14:11:21.941Z,15.53
2022-09-16T14:13:52.098Z,15.56
2022-09-16T14:16:30.803Z,15.58
2022-09-16T14:19:17.807Z,15.61
2022-09-16T14:21:44.377Z,15.69
2022-09-16T14:24:19.258Z,15.80
2022-09-16T14:26:56.930Z,15.85
2022-09-16T14:29:25.116Z,15.84
2022-09-16T14:31:57.106Z,15.84
2022-09-16T14:34:32.594Z,15.92
2022-09-16T14:36:59.561Z,16.07
2022-09-16T14:39:28.166Z,16.24
2022-09-16T14:41:59.271Z,16.39
2022-09-16T14:44:34.492Z,16.63
2022-09-16T14:47:07.818Z,16.89
2022-09-16T14:49:37.938Z,17.68
2022-09-16T14:52:04.975Z,18.00
2022-09-16T14:54:32.251Z,18.12
2022-09-16T14:57:05.966Z,17.98
2022-09-16T14:59:37.058Z,17.76
2022-09-16T15:02:24.948Z,17.96
2022-09-16T15:04:57.884Z,17.98
2022-09-16T15:07:34.132Z,17.64
2022-09-16T15:10:06.807Z,17.17
2022-09-16T15:12:37.627Z,16.71
2022-09-16T15:15:26.358Z,16.02
2022-09-16T15:18:22.149Z,15.29
2022-09-16T15:21:03.206Z,14.64
2022-09-16T15:23:30.613Z,14.13
2022-09-16T15:26:04.640Z,13.82
2022-09-16T15:28:31.204Z,13.62
2022-09-16T15:30:59.460Z,13.47
2022-09-16T15:33:37.651Z,13.40
2022-09-16T15:36:04.712Z,13.40
2022-09-16T15:38:31.391Z,13.35
2022-09-16T15:41:04.017Z,13.30
2022-09-16T15:43:40.008Z,13.27
2022-09-16T15:46:16.333Z,13.28
2022-09-16T15:48:50.003Z,13.34
2022-09-16T15:51:31.017Z,13.38
2022-09-16T15:54:48.307Z,13.37
2022-09-16T15:57:23.867Z,13.36
2022-09-16T15:59:53.173Z,13.42
2022-09-16T16:02:30.181Z,13.45
2022-09-16T16:05:15.134Z,13.48
2022-09-16T16:07:49.234Z,13.55
2022-09-16T16:10:27.667Z,13.57
2022-09-16T16:12:54.766Z,13.63
2022-09-16T16:15:26.876Z,13.67
2022-09-16T16:17:57.872Z,13.73
2022-09-16T16:20:24.659Z,13.86
2022-09-16T16:22:51.873Z,14.00
2022-09-16T16:25:19.023Z,14.03
2022-09-16T16:27:45.751Z,14.05
2022-09-16T16:30:12.523Z,14.05
2022-09-16T16:32:40.029Z,14.08
2022-09-16T16:35:06.942Z,14.07
2022-09-16T16:37:46.057Z,14.07
2022-09-16T16:40:14.222Z,14.06
2022-09-16T16:42:43.128Z,14.13
2022-09-16T16:45:11.106Z,14.17
2022-09-16T16:47:37.651Z,14.17
2022-09-16T16:50:04.673Z,14.17
2022-09-16T16:52:31.239Z,14.15
2022-09-16T16:54:57.773Z,14.13
2022-09-16T16:57:24.306Z,14.07
2022-09-16T16:59:52.057Z,14.02
2022-09-16T17:02:18.624Z,13.97
2022-09-16T17:04:45.219Z,13.94
2022-09-16T17:07:28.109Z,13.92
2022-09-16T17:09:57.300Z,13.83
2022-09-16T17:12:24.123Z,13.77
2022-09-16T17:14:50.683Z,13.77
2022-09-16T17:17:17.261Z,13.68
2022-09-16T17:19:43.820Z,13.64
2022-09-16T17:22:11.424Z,13.61
2022-09-16T17:24:37.977Z,13.61
2022-09-16T17:27:04.712Z,13.60
2022-09-16T17:29:31.332Z,13.54
2022-09-16T17:32:00.721Z,13.50
2022-09-16T17:34:27.605Z,13.49
2022-09-16T17:36:54.665Z,13.49
2022-09-16T17:39:22.205Z,13.47
2022-09-16T17:41:49.922Z,13.47
2022-09-16T17:44:18.016Z,13.43
2022-09-16T17:46:45.714Z,13.37
2022-09-16T17:49:21.798Z,13.30
2022-09-16T17:51:49.373Z,13.27
2022-09-16T17:54:16.709Z,13.22
2022-09-16T17:56:44.143Z,13.18
2022-09-16T17:59:12.720Z,13.15
2022-09-16T18:01:39.634Z,13.14
2022-09-16T18:04:06.908Z,13.11
2022-09-16T18:06:39.975Z,13.08
2022-09-16T18:09:07.509Z,13.05
2022-09-16T18:11:35.277Z,12.94
2022-09-16T18:14:04.490Z,12.85
2022-09-16T18:16:31.764Z,12.78
2022-09-16T18:19:00.588Z,12.75
2022-09-16T18:21:28.179Z,12.71
2022-09-16T18:23:57.298Z,12.69
2022-09-16T18:26:24.444Z,12.68
2022-09-16T18:29:09.091Z,12.68
2022-09-16T18:31:36.171Z,12.66
2022-09-16T18:34:02.770Z,12.65
2022-09-16T18:36:30.318Z,12.61
2022-09-16T18:38:58.491Z,12.59
2022-09-16T18:41:27.402Z,12.58
2022-09-16T18:44:04.940Z,12.56
2022-09-16T18:46:33.769Z,12.55
2022-09-16T18:49:00.828Z,12.53
2022-09-16T18:51:33.492Z,12.53
2022-09-16T18:54:03.029Z,12.52
2022-09-16T18:56:35.063Z,12.51
2022-09-16T18:59:20.961Z,12.45
2022-09-16T19:01:49.105Z,12.47
2022-09-16T19:04:18.968Z,12.47
2022-09-16T19:06:50.806Z,12.44
2022-09-16T19:09:19.305Z,12.43
2022-09-16T19:11:45.917Z,12.41
2022-09-16T19:14:14.242Z,12.36
2022-09-16T19:16:42.947Z,12.32
2022-09-16T19:19:12.008Z,12.28
2022-09-16T19:21:38.770Z,12.28
2022-09-16T19:24:07.701Z,12.28
2022-09-16T19:26:36.756Z,12.29
2022-09-16T19:29:07.555Z,12.22
2022-09-16T19:31:37.126Z,12.14
2022-09-16T19:34:03.821Z,12.08
2022-09-16T19:36:32.413Z,12.04
2022-09-16T19:38:59.751Z,11.99
2022-09-16T19:41:31.652Z,11.96
2022-09-16T19:44:01.430Z,11.90
2022-09-16T19:46:31.743Z,11.88
2022-09-16T19:48:58.700Z,11.89
2022-09-16T19:51:26.721Z,11.88
2022-09-16T19:53:55.051Z,11.84
2022-09-16T19:56:24.751Z,11.80
2022-09-16T19:58:52.424Z,11.77
2022-09-16T20:01:21.818Z,11.73
2022-09-16T20:03:51.280Z,11.70
2022-09-16T20:06:23.480Z,11.68
2022-09-16T20:08:58.765Z,11.66
2022-09-16T20:11:27.903Z,11.67
2022-09-16T20:13:56.981Z,11.62
2022-09-16T20:16:26.462Z,11.61
2022-09-16T20:18:53.823Z,11.55
2022-09-16T20:21:23.760Z,11.51
2022-09-16T20:23:52.082Z,11.49
2022-09-16T20:26:20.138Z,11.47
2022-09-16T20:28:50.818Z,11.43
2022-09-16T20:31:22.635Z,11.40
2022-09-16T20:33:49.771Z,11.38
2022-09-16T20:36:18.478Z,11.37
2022-09-16T20:38:45.946Z,11.39
2022-09-16T20:41:15.964Z,11.36
2022-09-16T20:43:43.150Z,11.36
2022-09-16T20:46:15.596Z,11.31
2022-09-16T20:48:43.072Z,11.30
2022-09-16T20:51:14.949Z,11.28
2022-09-16T20:53:44.923Z,11.28
2022-09-16T20:56:15.646Z,11.24
2022-09-16T20:58:42.990Z,11.20
2022-09-16T21:01:18.718Z,11.16
2022-09-16T21:03:45.715Z,11.16
2022-09-16T21:06:17.340Z,11.14
2022-09-16T21:08:44.271Z,11.13
2022-09-16T21:11:13.574Z,11.10
2022-09-16T21:13:43.988Z,11.07
2022-09-16T21:16:13.680Z,11.02
2022-09-16T21:18:40.536Z,11.01
2022-09-16T21:21:19.560Z,10.99
2022-09-16T21:23:47.219Z,10.99
2022-09-16T21:26:16.870Z,10.99
2022-09-16T21:28:44.801Z,10.97
2022-09-16T21:31:13.367Z,10.96
2022-09-16T21:33:42.054Z,10.96
2022-09-16T21:36:12.424Z,10.97
2022-09-16T21:38:40.316Z,10.98
2022-09-16T21:41:12.977Z,10.96
2022-09-16T21:43:55.620Z,10.94
2022-09-16T21:46:25.863Z,10.94
2022-09-16T21:48:55.665Z,10.92
2022-09-16T21:51:22.216Z,10.91
2022-09-16T21:53:48.721Z,10.92
2022-09-16T21:56:20.928Z,10.97
2022-09-16T21:58:49.000Z,11.00
2022-09-16T22:01:24.278Z,11.02
2022-09-16T22:03:59.101Z,11.02
2022-09-16T22:06:27.271Z,10.99
2022-09-16T22:08:55.410Z,10.93
2022-09-16T22:11:25.454Z,10.87
2022-09-16T22:13:54.090Z,10.88
2022-09-16T22:16:27.407Z,10.88
2022-09-16T22:19:00.634Z,10.83
2022-09-16T22:21:32.109Z,10.76
2022-09-16T22:24:00.974Z,10.69
2022-09-16T22:26:28.548Z,10.65
2022-09-16T22:28:55.298Z,10.65
2022-09-16T22:31:25.392Z,10.64
2022-09-16T22:33:53.922Z,10.60
2022-09-16T22:36:25.733Z,10.56
2022-09-16T22:38:57.091Z,10.54
2022-09-16T22:41:25.203Z,10.53
2022-09-16T22:43:53.012Z,10.57
2022-09-16T22:46:25.162Z,10.57
2022-09-16T22:48:52.528Z,10.54
2022-09-16T22:51:20.633Z,10.51
2022-09-16T22:53:48.335Z,10.45
2022-09-16T22:56:17.936Z,10.41
2022-09-16T22:58:45.662Z,10.41
2022-09-16T23:01:15.435Z,10.39
2022-09-16T23:03:43.283Z,10.36
2022-09-16T23:06:13.135Z,10.35
2022-09-16T23:08:42.175Z,10.35
2022-09-16T23:11:14.645Z,10.32
2022-09-16T23:13:45.335Z,10.30
2022-09-16T23:16:17.871Z,10.29
2022-09-16T23:18:46.083Z,10.27
2022-09-16T23:21:16.018Z,10.27
2022-09-16T23:23:45.021Z,10.28
2022-09-16T23:26:17.229Z,10.30
2022-09-16T23:28:44.547Z,10.32
2022-09-16T23:31:16.665Z,10.32
2022-09-16T23:33:44.207Z,10.29
2022-09-16T23:36:14.654Z,10.29
2022-09-16T23:38:42.619Z,10.30
2022-09-16T23:41:13.407Z,10.30
2022-09-16T23:43:43.934Z,10.27
2022-09-16T23:46:14.217Z,10.25
2022-09-16T23:48:42.567Z,10.23
2022-09-16T23:51:09.254Z,10.25
2022-09-16T23:53:37.288Z,10.22
2022-09-16T23:56:08.364Z,10.21
2022-09-16T23:58:35.383Z,10.19
